Time;durP1;ratioP1;P1;durP2;ratioP2;P2;SDS_P1;SDS_P2;PMS_P1;PMS_P2;Temp;Humidity;BMP_temperature;BMP_pressure;BME280_temperature;BME280_humidity;BME280_pressure;Samples;Min_cycle;Max_cycle;Signal;HPM_P1;HPM_P2
2023/11/19 00:00:46;;;;;;;;;;;;;;;4.59;100.00;95794.34;10604150;27;2601;-68
2023/11/19 00:05:56;;;;;;;;;;;;;;;4.60;100.00;95784.50;10597575;27;2814;-69
2023/11/19 00:10:58;;;;;;;;;;;;;;;4.64;100.00;95787.50;10595006;27;2865;-69
2023/11/19 00:16:03;;;;;;;;;;;;;;;4.73;100.00;95762.13;10596869;27;4903;-69
2023/11/19 00:21:08;;;;;;;;;;;;;;;4.55;100.00;95755.13;10594693;27;2631;-69
2023/11/19 00:26:11;;;;;;;;;;;;;;;4.65;100.00;95741.22;10579977;27;2593;-70
2023/11/19 00:31:15;;;;;;;;;;;;;;;4.73;100.00;95744.28;10596563;27;2686;-69
2023/11/19 00:36:17;;;;;;;;;;;;;;;4.86;100.00;95730.69;10598889;27;2556;-69
2023/11/19 00:41:23;;;;;;;;;;;;;;;4.84;100.00;95732.78;10602686;27;2560;-71
2023/11/19 00:46:27;;;;;;;;;;;;;;;4.93;100.00;95724.41;10594380;27;2631;-69
2023/11/19 00:51:32;;;;;;;;;;;;;;;4.97;100.00;95722.91;10594685;27;2628;-72
2023/11/19 00:56:35;;;;;;;;;;;;;;;5.13;100.00;95716.78;10596215;27;2621;-69
2023/11/19 01:01:38;;;;;;;;;;;;;;;5.13;100.00;95708.78;10594927;27;2595;-67
2023/11/19 01:06:41;;;;;;;;;;;;;;;5.20;100.00;95712.09;10572471;27;2651;-69
2023/11/19 01:11:49;;;;;;;;;;;;;;;5.21;100.00;95695.03;10580298;27;2603;-68
2023/11/19 01:16:53;;;;;;;;;;;;;;;5.38;100.00;95692.41;10578488;27;5110;-73
2023/11/19 01:21:56;;;;;;;;;;;;;;;5.38;100.00;95687.88;10592427;27;2556;-68
2023/11/19 01:26:59;;;;;;;;;;;;;;;5.45;100.00;95678.91;10580590;27;2629;-69
2023/11/19 01:32:02;;;;;;;;;;;;;;;5.49;100.00;95682.72;10599915;27;2828;-69
2023/11/19 01:37:05;;;;;;;;;;;;;;;5.46;100.00;95677.84;10573728;27;2647;-68
2023/11/19 01:42:08;;;;;;;;;;;;;;;5.52;100.00;95666.22;10573697;27;2695;-68
2023/11/19 01:47:11;;;;;;;;;;;;;;;5.49;100.00;95650.72;10592816;27;2678;-67
2023/11/19 01:52:13;;;;;;;;;;;;;;;5.56;100.00;95652.16;10598757;27;2569;-67
2023/11/19 01:57:16;;;;;;;;;;;;;;;5.63;100.00;95657.31;10592200;27;2684;-67
2023/11/19 02:02:20;;;;;;;;;;;;;;;5.77;100.00;95647.09;10592359;27;2835;-67
2023/11/19 02:07:23;;;;;;;;;;;;;;;5.78;100.00;95630.84;10594776;27;2631;-72
2023/11/19 02:12:28;;;;;;;;;;;;;;;5.92;100.00;95631.34;10595716;27;4602;-69
2023/11/19 02:17:31;;;;;;;;;;;;;;;5.99;100.00;95623.16;10597639;27;2622;-77
2023/11/19 02:22:34;;;;;;;;;;;;;;;6.13;100.00;95613.72;10594285;27;2684;-73
2023/11/19 02:27:38;;;;;;;;;;;;;;;6.16;100.00;95595.31;10594707;27;2617;-73
2023/11/19 02:32:41;;;;;;;;;;;;;;;6.21;100.00;95586.56;10596322;27;2590;-69
2023/11/19 02:37:44;;;;;;;;;;;;;;;6.34;100.00;95582.72;10574862;27;2706;-65
2023/11/19 02:42:47;;;;;;;;;;;;;;;6.36;100.00;95576.06;10598498;27;2629;-69
2023/11/19 02:47:54;;;;;;;;;;;;;;;6.53;100.00;95583.16;10590262;27;2830;-69
2023/11/19 02:52:58;;;;;;;;;;;;;;;6.62;100.00;95577.13;10594332;27;2775;-68
2023/11/19 02:58:05;;;;;;;;;;;;;;;6.72;100.00;95547.81;10578248;27;2770;-68
2023/11/19 03:03:19;;;;;;;;;;;;;;;6.81;100.00;95545.50;10595380;27;2619;-71
2023/11/19 03:08:23;;;;;;;;;;;;;;;6.97;100.00;95539.19;10598524;27;2599;-70
2023/11/19 03:13:26;;;;;;;;;;;;;;;7.08;100.00;95533.94;10580581;27;4650;-70
2023/11/19 03:18:29;;;;;;;;;;;;;;;7.18;100.00;95539.31;10595614;27;2609;-68
2023/11/19 03:23:32;;;;;;;;;;;;;;;7.21;100.00;95528.13;10593171;27;2722;-68
2023/11/19 03:28:35;;;;;;;;;;;;;;;7.38;100.00;95530.63;10585337;27;2738;-68
2023/11/19 03:33:38;;;;;;;;;;;;;;;7.40;100.00;95526.66;10569007;27;2600;-68
2023/11/19 03:38:42;;;;;;;;;;;;;;;7.51;100.00;95528.31;10595962;27;2602;-68
2023/11/19 03:43:46;;;;;;;;;;;;;;;7.66;100.00;95529.44;10589740;27;2607;-68
2023/11/19 03:48:50;;;;;;;;;;;;;;;7.72;100.00;95545.25;10590020;27;2726;-70
2023/11/19 03:53:54;;;;;;;;;;;;;;;7.85;100.00;95539.44;10594547;27;2650;-68
2023/11/19 03:58:57;;;;;;;;;;;;;;;7.95;100.00;95527.97;10592154;27;2684;-68
2023/11/19 04:04:01;;;;;;;;;;;;;;;8.01;100.00;95534.13;10589533;27;2667;-69
2023/11/19 04:09:04;;;;;;;;;;;;;;;8.18;100.00;95531.22;10591306;27;2608;-68
2023/11/19 04:14:11;;;;;;;;;;;;;;;8.28;100.00;95533.94;10576269;27;4832;-74
2023/11/19 04:19:14;;;;;;;;;;;;;;;8.37;100.00;95537.72;10573231;27;2612;-68
2023/11/19 04:24:17;;;;;;;;;;;;;;;8.42;100.00;95535.06;10589764;27;2611;-68
2023/11/19 04:29:21;;;;;;;;;;;;;;;8.54;100.00;95540.19;10596032;27;2644;-69
2023/11/19 04:34:23;;;;;;;;;;;;;;;8.48;100.00;95552.75;10605246;27;2592;-70
2023/11/19 04:39:26;;;;;;;;;;;;;;;8.63;100.00;95533.22;10585479;27;2576;-70
2023/11/19 04:44:29;;;;;;;;;;;;;;;8.60;100.00;95542.59;10582701;27;2612;-72
2023/11/19 04:49:33;;;;;;;;;;;;;;;8.72;100.00;95534.31;10597807;27;2630;-71
2023/11/19 04:54:36;;;;;;;;;;;;;;;8.75;100.00;95530.28;10599827;27;2674;-66
2023/11/19 04:59:38;;;;;;;;;;;;;;;8.84;100.00;95544.72;10599943;27;2650;-66
2023/11/19 05:04:42;;;;;;;;;;;;;;;8.90;100.00;95549.03;10602261;27;2619;-71
2023/11/19 05:09:47;;;;;;;;;;;;;;;8.98;100.00;95553.88;10602370;27;2585;-68
2023/11/19 05:14:50;;;;;;;;;;;;;;;9.00;100.00;95562.44;10600400;27;4716;-68
2023/11/19 05:19:53;;;;;;;;;;;;;;;8.97;100.00;95549.59;10600132;27;2664;-67
2023/11/19 05:24:56;;;;;;;;;;;;;;;8.99;100.00;95563.53;10599288;27;2698;-69
2023/11/19 05:29:59;;;;;;;;;;;;;;;8.99;100.00;95574.25;10604731;27;2698;-67
2023/11/19 05:35:02;;;;;;;;;;;;;;;9.02;100.00;95576.38;10581083;27;3633;-67
2023/11/19 05:40:08;;;;;;;;;;;;;;;9.04;100.00;95576.94;10598493;27;2618;-68
2023/11/19 05:45:11;;;;;;;;;;;;;;;9.02;100.00;95562.97;10593041;27;2634;-68
2023/11/19 05:50:14;;;;;;;;;;;;;;;9.02;100.00;95572.91;10577997;27;2553;-67
2023/11/19 05:55:17;;;;;;;;;;;;;;;8.92;100.00;95581.75;10595410;27;2544;-68
2023/11/19 06:00:20;;;;;;;;;;;;;;;8.91;100.00;95562.19;10602064;27;2861;-68
2023/11/19 06:05:22;;;;;;;;;;;;;;;8.93;100.00;95560.03;10593793;27;2670;-67
2023/11/19 06:10:29;;;;;;;;;;;;;;;8.98;100.00;95555.75;10598025;27;2643;-67
2023/11/19 06:15:32;;;;;;;;;;;;;;;8.97;100.00;95571.03;10593213;27;4673;-65
2023/11/19 06:20:35;;;;;;;;;;;;;;;9.00;100.00;95575.03;10597009;27;2688;-68
2023/11/19 06:25:41;;;;;;;;;;;;;;;9.01;100.00;95557.88;10578571;27;2589;-70
2023/11/19 06:30:44;;;;;;;;;;;;;;;9.12;100.00;95568.34;10598554;27;2638;-67
2023/11/19 06:35:50;;;;;;;;;;;;;;;9.17;100.00;95572.91;10578019;27;2596;-69
2023/11/19 06:40:53;;;;;;;;;;;;;;;9.19;100.00;95570.75;10592601;27;2684;-69
2023/11/19 06:45:56;;;;;;;;;;;;;;;9.19;100.00;95557.34;10595389;27;2650;-69
2023/11/19 06:51:00;;;;;;;;;;;;;;;9.20;100.00;95573.16;10598033;27;2575;-69
2023/11/19 06:56:03;;;;;;;;;;;;;;;9.35;100.00;95576.88;10595679;27;2731;-69
2023/11/19 07:01:10;;;;;;;;;;;;;;;9.41;100.00;95581.19;10592092;27;2622;-70
2023/11/19 07:06:13;;;;;;;;;;;;;;;9.47;100.00;95588.13;10592686;27;2960;-69
2023/11/19 07:11:16;;;;;;;;;;;;;;;9.58;100.00;95587.06;10597658;27;2572;-72
2023/11/19 07:16:21;;;;;;;;;;;;;;;9.65;100.00;95592.94;10603639;27;2599;-69
2023/11/19 07:21:24;;;;;;;;;;;;;;;9.75;100.00;95584.06;10598822;27;2615;-70
2023/11/19 07:26:26;;;;;;;;;;;;;;;9.78;100.00;95585.41;10598205;27;2624;-69
2023/11/19 07:31:32;;;;;;;;;;;;;;;9.90;100.00;95585.91;10603352;27;2603;-72
2023/11/19 07:36:35;;;;;;;;;;;;;;;9.95;100.00;95599.31;10598239;27;2673;-70
2023/11/19 07:41:38;;;;;;;;;;;;;;;9.98;100.00;95612.97;10601167;27;2617;-69
2023/11/19 07:46:44;;;;;;;;;;;;;;;10.00;100.00;95620.78;10594387;27;2564;-69
2023/11/19 07:51:48;;;;;;;;;;;;;;;10.05;100.00;95617.25;10598153;27;2572;-69
2023/11/19 07:56:51;;;;;;;;;;;;;;;10.11;100.00;95626.91;10596473;27;2624;-70
2023/11/19 08:01:53;;;;;;;;;;;;;;;10.14;100.00;95629.06;10601906;27;2551;-67
2023/11/19 08:06:56;;;;;;;;;;;;;;;10.24;100.00;95621.81;10594898;27;2612;-70
2023/11/19 08:11:59;;;;;;;;;;;;;;;10.38;100.00;95618.53;10611842;27;4626;-67
2023/11/19 08:17:01;;;;;;;;;;;;;;;10.41;100.00;95626.81;10607308;27;2555;-74
2023/11/19 08:22:04;;;;;;;;;;;;;;;10.57;100.00;95622.19;10610166;27;2548;-78
2023/11/19 08:27:06;;;;;;;;;;;;;;;10.68;100.00;95631.78;10608923;27;2694;-72
2023/11/19 08:32:10;;;;;;;;;;;;;;;10.68;100.00;95629.09;10587614;27;2610;-68
2023/11/19 08:37:13;;;;;;;;;;;;;;;10.71;100.00;95630.44;10604790;27;2600;-69
2023/11/19 08:42:15;;;;;;;;;;;;;;;10.71;100.00;95625.88;10603069;27;2658;-66
2023/11/19 08:47:19;;;;;;;;;;;;;;;10.80;100.00;95629.56;10596405;27;2605;-66
2023/11/19 08:52:22;;;;;;;;;;;;;;;10.89;100.00;95632.50;10602465;27;2696;-67
2023/11/19 08:57:24;;;;;;;;;;;;;;;10.96;100.00;95632.19;10603157;27;2580;-70
2023/11/19 09:02:27;;;;;;;;;;;;;;;11.00;100.00;95627.84;10584731;27;2735;-68
2023/11/19 09:07:30;;;;;;;;;;;;;;;11.09;100.00;95620.78;10599475;27;2627;-69
2023/11/19 09:12:34;;;;;;;;;;;;;;;11.27;100.00;95622.81;10598067;27;2756;-67
2023/11/19 09:17:37;;;;;;;;;;;;;;;11.40;100.00;95609.81;10602289;27;2571;-69
2023/11/19 09:22:40;;;;;;;;;;;;;;;11.52;100.00;95626.38;10599510;27;2585;-68
2023/11/19 09:27:43;;;;;;;;;;;;;;;11.54;100.00;95635.78;10601616;27;2795;-68
2023/11/19 09:32:45;;;;;;;;;;;;;;;11.81;100.00;95632.59;10598083;27;2759;-68
2023/11/19 09:37:48;;;;;;;;;;;;;;;11.73;100.00;95630.50;10602141;27;2605;-67
2023/11/19 09:42:53;;;;;;;;;;;;;;;11.76;100.00;95632.59;10601095;27;2580;-68
2023/11/19 09:47:57;;;;;;;;;;;;;;;11.63;100.00;95636.75;10595576;27;2580;-67
2023/11/19 09:53:02;;;;;;;;;;;;;;;11.48;100.00;95638.78;10601175;27;2980;-68
2023/11/19 09:58:08;;;;;;;;;;;;;;;11.69;100.00;95626.75;10589738;27;2658;-69
2023/11/19 10:03:12;;;;;;;;;;;;;;;11.82;100.00;95615.34;10596770;27;2615;-68
2023/11/19 10:08:16;;;;;;;;;;;;;;;11.90;100.00;95601.25;10600138;27;2608;-68
2023/11/19 10:13:18;;;;;;;;;;;;;;;12.23;100.00;95596.03;10586474;27;2632;-73
2023/11/19 10:18:21;;;;;;;;;;;;;;;12.17;100.00;95583.72;10599767;27;2606;-69
2023/11/19 10:23:24;;;;;;;;;;;;;;;12.11;100.00;95590.25;10598820;27;2562;-68
2023/11/19 10:28:26;;;;;;;;;;;;;;;12.21;100.00;95582.03;10597398;27;2697;-69
2023/11/19 10:33:29;;;;;;;;;;;;;;;12.29;100.00;95573.31;10597835;27;2579;-69
2023/11/19 10:38:32;;;;;;;;;;;;;;;12.48;100.00;95569.84;10596228;27;2597;-68
2023/11/19 10:43:39;;;;;;;;;;;;;;;12.61;100.00;95542.16;10596071;27;2619;-69
2023/11/19 10:48:41;;;;;;;;;;;;;;;12.82;100.00;95554.25;10590798;27;2623;-70
2023/11/19 10:53:44;;;;;;;;;;;;;;;13.04;100.00;95545.56;10595330;27;2621;-67
2023/11/19 10:58:48;;;;;;;;;;;;;;;13.14;100.00;95540.00;10599989;27;2647;-68
2023/11/19 11:03:51;;;;;;;;;;;;;;;13.15;100.00;95546.19;10592587;27;2611;-72
2023/11/19 11:08:54;;;;;;;;;;;;;;;13.03;100.00;95532.34;10590594;27;2608;-67
2023/11/19 11:14:01;;;;;;;;;;;;;;;13.12;100.00;95520.59;10598728;27;4666;-67
2023/11/19 11:19:06;;;;;;;;;;;;;;;13.16;100.00;95520.78;10598054;27;2901;-69
2023/11/19 11:24:08;;;;;;;;;;;;;;;13.07;100.00;95526.06;10592241;27;2590;-71
2023/11/19 11:29:11;;;;;;;;;;;;;;;13.13;100.00;95516.00;10604678;27;2611;-70
2023/11/19 11:34:13;;;;;;;;;;;;;;;13.25;100.00;95513.66;10594102;27;2610;-69
2023/11/19 11:39:16;;;;;;;;;;;;;;;13.25;100.00;95500.97;10598251;27;2629;-67
2023/11/19 11:44:20;;;;;;;;;;;;;;;13.26;100.00;95507.16;10590445;27;3421;-70
2023/11/19 11:49:22;;;;;;;;;;;;;;;13.11;100.00;95492.00;10592831;27;2576;-68
2023/11/19 11:54:25;;;;;;;;;;;;;;;13.01;100.00;95488.69;10595936;27;2674;-70
2023/11/19 11:59:27;;;;;;;;;;;;;;;13.22;100.00;95498.06;10596045;27;2602;-72
2023/11/19 12:04:30;;;;;;;;;;;;;;;13.28;100.00;95502.25;10587782;27;2636;-68
2023/11/19 12:09:33;;;;;;;;;;;;;;;13.23;100.00;95495.06;10594510;27;2653;-68
2023/11/19 12:14:35;;;;;;;;;;;;;;;13.09;100.00;95502.28;10594358;27;2613;-69
2023/11/19 12:19:38;;;;;;;;;;;;;;;13.10;100.00;95516.56;10596505;27;2611;-69
2023/11/19 12:24:41;;;;;;;;;;;;;;;13.41;100.00;95506.88;10594452;27;2662;-70
2023/11/19 12:29:45;;;;;;;;;;;;;;;13.79;100.00;95485.09;10586431;27;2635;-69
2023/11/19 12:34:48;;;;;;;;;;;;;;;13.81;100.00;95469.41;10587195;27;2579;-71
2023/11/19 12:39:50;;;;;;;;;;;;;;;13.47;100.00;95467.88;10595343;27;2668;-72
2023/11/19 12:44:53;;;;;;;;;;;;;;;13.53;100.00;95466.69;10591865;27;2589;-69
2023/11/19 12:49:55;;;;;;;;;;;;;;;13.71;100.00;95466.91;10588677;27;2702;-71
2023/11/19 12:54:58;;;;;;;;;;;;;;;14.00;100.00;95453.09;10594827;27;2640;-70
2023/11/19 13:00:01;;;;;;;;;;;;;;;14.23;100.00;95445.81;10601051;27;2611;-70
2023/11/19 13:05:04;;;;;;;;;;;;;;;14.25;100.00;95446.28;10599409;27;2719;-69
2023/11/19 13:10:07;;;;;;;;;;;;;;;14.30;100.00;95446.19;10603649;27;2664;-71
2023/11/19 13:15:13;;;;;;;;;;;;;;;14.26;100.00;95450.63;10596192;27;4716;-69
2023/11/19 13:20:16;;;;;;;;;;;;;;;13.96;100.00;95449.38;10605455;27;2646;-68
2023/11/19 13:25:19;;;;;;;;;;;;;;;14.34;100.00;95444.50;10600973;27;2619;-69
2023/11/19 13:30:22;;;;;;;;;;;;;;;14.31;100.00;95445.09;10606733;27;2658;-68
2023/11/19 13:35:27;;;;;;;;;;;;;;;14.07;100.00;95431.84;10599843;27;2686;-68
2023/11/19 13:40:30;;;;;;;;;;;;;;;14.02;100.00;95424.66;10596966;27;2577;-69
2023/11/19 13:45:33;;;;;;;;;;;;;;;13.79;100.00;95428.38;10596676;27;2579;-69
2023/11/19 13:50:36;;;;;;;;;;;;;;;13.51;100.00;95420.28;10596238;27;2643;-67
2023/11/19 13:55:39;;;;;;;;;;;;;;;13.40;100.00;95421.59;10598322;27;2563;-68
2023/11/19 14:00:43;;;;;;;;;;;;;;;13.24;100.00;95423.78;10591915;27;2675;-74
2023/11/19 14:05:46;;;;;;;;;;;;;;;13.22;100.00;95406.28;10594207;27;2624;-68
2023/11/19 14:10:49;;;;;;;;;;;;;;;13.14;100.00;95409.66;10588369;27;2618;-68
2023/11/19 14:15:52;;;;;;;;;;;;;;;13.15;100.00;95416.66;10599490;27;4697;-70
2023/11/19 14:20:54;;;;;;;;;;;;;;;13.12;100.00;95418.06;10597077;27;2619;-69
2023/11/19 14:25:57;;;;;;;;;;;;;;;13.05;100.00;95411.44;10596205;27;2684;-70
2023/11/19 14:30:59;;;;;;;;;;;;;;;13.13;100.00;95410.75;10596104;27;2532;-69
2023/11/19 14:36:02;;;;;;;;;;;;;;;12.95;100.00;95418.63;10595728;27;2594;-70
2023/11/19 14:41:05;;;;;;;;;;;;;;;12.98;100.00;95417.25;10591381;27;2651;-68
2023/11/19 14:46:07;;;;;;;;;;;;;;;12.87;100.00;95427.41;10593135;27;2667;-69
2023/11/19 14:51:10;;;;;;;;;;;;;;;12.67;100.00;95417.75;10588633;27;2615;-68
2023/11/19 14:56:13;;;;;;;;;;;;;;;12.42;100.00;95410.88;10590924;27;2702;-69
2023/11/19 15:01:16;;;;;;;;;;;;;;;12.27;100.00;95413.78;10594714;27;2623;-69
2023/11/19 15:06:19;;;;;;;;;;;;;;;12.05;100.00;95416.28;10592159;27;2710;-70
2023/11/19 15:11:22;;;;;;;;;;;;;;;11.92;100.00;95423.19;10593387;27;2564;-68
2023/11/19 15:16:30;;;;;;;;;;;;;;;11.82;100.00;95417.94;10592939;27;4795;-70
2023/11/19 15:21:34;;;;;;;;;;;;;;;11.67;100.00;95413.53;10590289;27;2650;-69
2023/11/19 15:26:37;;;;;;;;;;;;;;;11.61;100.00;95409.31;10591918;27;2826;-69
2023/11/19 15:31:40;;;;;;;;;;;;;;;11.43;100.00;95423.50;10586567;27;2559;-69
2023/11/19 15:36:43;;;;;;;;;;;;;;;11.38;100.00;95435.94;10591441;27;2623;-68
2023/11/19 15:41:46;;;;;;;;;;;;;;;11.26;100.00;95438.25;10587996;27;2573;-69
2023/11/19 15:46:48;;;;;;;;;;;;;;;11.24;100.00;95437.72;10589890;27;2581;-72
2023/11/19 15:51:51;;;;;;;;;;;;;;;11.28;100.00;95437.94;10590355;27;2687;-69
2023/11/19 15:56:54;;;;;;;;;;;;;;;11.13;100.00;95448.84;10589863;27;2641;-70
2023/11/19 16:01:58;;;;;;;;;;;;;;;11.34;100.00;95452.97;10591481;27;2552;-69
2023/11/19 16:07:03;;;;;;;;;;;;;;;11.25;100.00;95463.53;10589870;27;2674;-73
2023/11/19 16:12:06;;;;;;;;;;;;;;;11.45;100.00;95461.69;10595322;27;4704;-69
2023/11/19 16:17:08;;;;;;;;;;;;;;;11.46;100.00;95463.31;10589465;27;2580;-71
2023/11/19 16:22:11;;;;;;;;;;;;;;;11.47;100.00;95460.34;10596048;27;3121;-69
2023/11/19 16:27:15;;;;;;;;;;;;;;;11.32;100.00;95453.25;10593846;27;2604;-68
2023/11/19 16:32:22;;;;;;;;;;;;;;;11.19;100.00;95458.47;10602809;27;2630;-68
2023/11/19 16:37:25;;;;;;;;;;;;;;;10.99;100.00;95446.03;10603567;27;2642;-69
2023/11/19 16:42:27;;;;;;;;;;;;;;;10.81;100.00;95448.38;10599145;27;3007;-69
2023/11/19 16:47:30;;;;;;;;;;;;;;;10.72;100.00;95447.34;10599660;27;2643;-69
2023/11/19 16:52:33;;;;;;;;;;;;;;;10.67;100.00;95452.78;10599433;27;3178;-67
2023/11/19 16:57:38;;;;;;;;;;;;;;;10.80;100.00;95454.00;10600190;27;2610;-73
2023/11/19 17:02:42;;;;;;;;;;;;;;;10.71;100.00;95440.38;10600685;27;2590;-68
2023/11/19 17:07:48;;;;;;;;;;;;;;;10.72;100.00;95444.66;10599395;27;2745;-69
2023/11/19 17:12:52;;;;;;;;;;;;;;;10.81;100.00;95443.00;10601062;27;4645;-72
2023/11/19 17:17:55;;;;;;;;;;;;;;;10.81;100.00;95443.00;10601101;27;3201;-68
2023/11/19 17:22:58;;;;;;;;;;;;;;;10.86;100.00;95442.13;10602626;27;2700;-69
2023/11/19 17:28:03;;;;;;;;;;;;;;;10.71;100.00;95448.44;10599679;27;2655;-68
2023/11/19 17:33:09;;;;;;;;;;;;;;;10.68;100.00;95451.69;10599057;27;2652;-69
2023/11/19 17:38:11;;;;;;;;;;;;;;;10.74;100.00;95463.19;10597259;27;2637;-68
2023/11/19 17:43:18;;;;;;;;;;;;;;;10.71;100.00;95469.97;10599150;27;2670;-68
2023/11/19 17:48:21;;;;;;;;;;;;;;;10.63;100.00;95467.88;10579702;27;2612;-70
2023/11/19 17:53:24;;;;;;;;;;;;;;;10.57;100.00;95463.63;10601282;27;2694;-68
2023/11/19 17:58:27;;;;;;;;;;;;;;;10.52;100.00;95460.97;10597567;27;2685;-70
2023/11/19 18:03:29;;;;;;;;;;;;;;;10.53;100.00;95465.25;10595721;27;2634;-68
2023/11/19 18:08:32;;;;;;;;;;;;;;;10.60;100.00;95470.31;10597582;27;2686;-70
2023/11/19 18:13:34;;;;;;;;;;;;;;;10.57;100.00;95481.63;10590690;27;4662;-69
2023/11/19 18:18:37;;;;;;;;;;;;;;;10.57;100.00;95481.63;10595770;27;2624;-69
2023/11/19 18:23:40;;;;;;;;;;;;;;;10.52;100.00;95494.03;10598030;27;2724;-69
2023/11/19 18:28:42;;;;;;;;;;;;;;;10.61;100.00;95480.78;10591420;27;2691;-69
2023/11/19 18:33:48;;;;;;;;;;;;;;;10.54;100.00;95494.53;10599587;27;2630;-70
2023/11/19 18:38:53;;;;;;;;;;;;;;;10.63;100.00;95489.38;10594182;27;2612;-68
2023/11/19 18:43:57;;;;;;;;;;;;;;;10.67;100.00;95481.53;10577906;27;2665;-68
2023/11/19 18:49:03;;;;;;;;;;;;;;;10.66;100.00;95478.06;10594263;27;2639;-69
2023/11/19 18:54:06;;;;;;;;;;;;;;;10.52;100.00;95483.28;10587008;27;2749;-71
2023/11/19 18:59:11;;;;;;;;;;;;;;;10.47;100.00;95495.94;10586466;27;2636;-71
2023/11/19 19:04:14;;;;;;;;;;;;;;;10.53;100.00;95495.63;10591762;27;2596;-70
2023/11/19 19:09:18;;;;;;;;;;;;;;;10.41;100.00;95489.78;10596144;27;2635;-72
2023/11/19 19:14:21;;;;;;;;;;;;;;;10.47;100.00;95495.94;10588904;27;4697;-70
2023/11/19 19:19:23;;;;;;;;;;;;;;;10.38;100.00;95511.84;10592434;27;2619;-73
2023/11/19 19:24:27;;;;;;;;;;;;;;;10.44;100.00;95507.25;10591272;27;2607;-70
2023/11/19 19:29:29;;;;;;;;;;;;;;;10.39;100.00;95512.66;10593193;27;2680;-70
2023/11/19 19:34:32;;;;;;;;;;;;;;;10.35;100.00;95514.28;10594902;27;2606;-71
2023/11/19 19:39:35;;;;;;;;;;;;;;;10.23;100.00;95523.47;10593982;27;3113;-70
2023/11/19 19:44:38;;;;;;;;;;;;;;;10.31;100.00;95522.13;10590123;27;2601;-68
2023/11/19 19:49:42;;;;;;;;;;;;;;;10.13;100.00;95528.88;10596889;27;2650;-71
2023/11/19 19:54:45;;;;;;;;;;;;;;;10.02;100.00;95522.75;10591404;27;2674;-71
2023/11/19 19:59:49;;;;;;;;;;;;;;;10.03;100.00;95523.56;10591776;27;2579;-70
2023/11/19 20:04:53;;;;;;;;;;;;;;;10.04;100.00;95530.53;10592877;27;2696;-71
2023/11/19 20:09:58;;;;;;;;;;;;;;;9.92;100.00;95527.34;10592011;27;2630;-69
2023/11/19 20:15:01;;;;;;;;;;;;;;;9.99;100.00;95546.69;10605217;27;4649;-68
2023/11/19 20:20:04;;;;;;;;;;;;;;;10.04;100.00;95546.63;10603902;27;2528;-71
2023/11/19 20:25:07;;;;;;;;;;;;;;;9.96;100.00;95544.53;10601543;27;2633;-69
2023/11/19 20:30:09;;;;;;;;;;;;;;;9.94;100.00;95547.50;10599668;27;2562;-70
2023/11/19 20:35:12;;;;;;;;;;;;;;;9.86;100.00;95544.56;10598601;27;2664;-69
2023/11/19 20:40:15;;;;;;;;;;;;;;;9.81;100.00;95558.81;10599409;27;2572;-70
2023/11/19 20:45:19;;;;;;;;;;;;;;;9.81;100.00;95561.50;10599097;27;2741;-71
2023/11/19 20:50:24;;;;;;;;;;;;;;;9.85;100.00;95575.19;10594626;27;2574;-71
2023/11/19 20:55:27;;;;;;;;;;;;;;;9.93;100.00;95561.22;10591714;27;2647;-70
2023/11/19 21:00:31;;;;;;;;;;;;;;;9.91;100.00;95563.34;10597436;27;2761;-71
2023/11/19 21:05:35;;;;;;;;;;;;;;;9.88;100.00;95569.28;10594584;27;2755;-70
2023/11/19 21:10:38;;;;;;;;;;;;;;;9.96;100.00;95556.06;10597229;27;2607;-69
2023/11/19 21:15:41;;;;;;;;;;;;;;;9.99;100.00;95555.53;10599594;27;4658;-69
2023/11/19 21:20:58;;;;;;;;;;;;;;;10.08;100.00;95544.22;10596724;27;2678;-72
2023/11/19 21:26:01;;;;;;;;;;;;;;;10.18;100.00;95531.56;10597213;27;2610;-74
2023/11/19 21:31:04;;;;;;;;;;;;;;;10.26;100.00;95528.31;10593655;27;2598;-74
2023/11/19 21:36:07;;;;;;;;;;;;;;;10.21;100.00;95533.66;10590963;27;2687;-70
2023/11/19 21:41:11;;;;;;;;;;;;;;;10.18;100.00;95528.88;10591004;27;2689;-71
2023/11/19 21:46:14;;;;;;;;;;;;;;;10.14;100.00;95525.13;10595990;27;3118;-70
2023/11/19 21:51:17;;;;;;;;;;;;;;;10.08;100.00;95526.22;10589821;27;2553;-69
2023/11/19 21:56:20;;;;;;;;;;;;;;;10.05;100.00;95526.75;10590842;27;2735;-70
2023/11/19 22:01:23;;;;;;;;;;;;;;;10.05;100.00;95534.00;10589868;27;2632;-71
2023/11/19 22:06:29;;;;;;;;;;;;;;;10.10;100.00;95534.00;10587437;27;2674;-69
2023/11/19 22:11:32;;;;;;;;;;;;;;;10.13;100.00;95539.63;10596333;27;2606;-71
2023/11/19 22:16:35;;;;;;;;;;;;;;;10.22;100.00;95532.59;10591550;27;4672;-71
2023/11/19 22:21:38;;;;;;;;;;;;;;;10.15;100.00;95521.34;10595593;27;2734;-74
2023/11/19 22:26:41;;;;;;;;;;;;;;;10.13;100.00;95534.25;10594163;27;2627;-71
2023/11/19 22:31:43;;;;;;;;;;;;;;;10.05;100.00;95537.50;10598149;27;2613;-70
2023/11/19 22:36:46;;;;;;;;;;;;;;;9.95;100.00;95521.44;10591367;27;2635;-68
2023/11/19 22:41:49;;;;;;;;;;;;;;;10.00;100.00;95532.19;10595858;27;2560;-74
2023/11/19 22:46:51;;;;;;;;;;;;;;;10.01;100.00;95539.16;10589140;27;2524;-69
2023/11/19 22:51:55;;;;;;;;;;;;;;;10.00;100.00;95540.22;10588904;27;2536;-69
2023/11/19 22:56:57;;;;;;;;;;;;;;;9.95;100.00;95537.56;10570349;27;2593;-69
2023/11/19 23:02:00;;;;;;;;;;;;;;;9.85;100.00;95543.75;10592066;27;2674;-71
2023/11/19 23:07:03;;;;;;;;;;;;;;;9.80;100.00;95540.28;10589646;27;2653;-72
2023/11/19 23:12:07;;;;;;;;;;;;;;;10.13;100.00;95523.50;10592294;27;2678;-69
2023/11/19 23:17:19;;;;;;;;;;;;;;;10.05;100.00;95529.44;10573993;27;2733;-69
2023/11/19 23:22:22;;;;;;;;;;;;;;;10.06;100.00;95528.38;10599680;27;2612;-70
2023/11/19 23:27:31;;;;;;;;;;;;;;;9.92;100.00;95538.91;10577340;27;2605;-71
2023/11/19 23:32:35;;;;;;;;;;;;;;;9.80;100.00;95548.34;10596412;27;2731;-68
2023/11/19 23:37:39;;;;;;;;;;;;;;;9.68;100.00;95554.84;10593014;27;2646;-68
2023/11/19 23:42:43;;;;;;;;;;;;;;;9.59;100.00;95550.28;10592247;27;2614;-69
2023/11/19 23:47:46;;;;;;;;;;;;;;;9.55;100.00;95549.25;10591042;27;2663;-71
2023/11/19 23:52:49;;;;;;;;;;;;;;;9.61;100.00;95543.59;10576660;27;2593;-69
2023/11/19 23:57:52;;;;;;;;;;;;;;;9.59;100.00;95539.56;10588022;27;2704;-72
